Time;durP1;ratioP1;P1;durP2;ratioP2;P2;SDS_P1;SDS_P2;PMS_P1;PMS_P2;Temp;Humidity;BMP_temperature;BMP_pressure;BME280_temperature;BME280_humidity;BME280_pressure;Samples;Min_cycle;Max_cycle;Signal;HPM_P1;HPM_P2
2022/07/19 00:00:12;;;;;;;2.70;1.40;;;;;;;15.56;62.51;99971.91;1788198;79;22660;-42
2022/07/19 00:02:39;;;;;;;2.77;1.50;;;;;;;15.46;62.70;99970.41;1763340;81;20982;-42
2022/07/19 00:05:08;;;;;;;2.80;1.80;;;;;;;15.45;62.91;99968.84;1762973;81;21243;-42
2022/07/19 00:07:35;;;;;;;2.15;1.22;;;;;;;15.45;62.98;99962.00;1763331;81;20966;-42
2022/07/19 00:10:05;;;;;;;2.92;1.35;;;;;;;15.47;63.17;99963.80;1763064;81;20907;-42
2022/07/19 00:12:33;;;;;;;3.67;1.32;;;;;;;15.49;63.27;99967.70;1763167;81;21449;-42
2022/07/19 00:15:01;;;;;;;2.62;1.27;;;;;;;15.42;62.58;99962.77;1763150;81;21489;-42
2022/07/19 00:17:28;;;;;;;2.62;1.35;;;;;;;15.35;62.66;99965.42;1763054;81;23165;-42
2022/07/19 00:19:56;;;;;;;4.05;1.55;;;;;;;15.32;62.50;99964.24;1762872;81;21563;-42
2022/07/19 00:22:22;;;;;;;2.70;1.92;;;;;;;15.32;62.30;99968.34;1763258;81;21058;-42
2022/07/19 00:24:50;;;;;;;4.15;2.02;;;;;;;15.32;62.18;99964.24;1762903;81;21367;-42
2022/07/19 00:27:17;;;;;;;3.72;1.77;;;;;;;15.31;62.24;99965.98;1763217;81;21568;-42
2022/07/19 00:29:44;;;;;;;2.22;1.37;;;;;;;15.35;61.95;99962.69;1763076;81;21576;-42
2022/07/19 00:32:12;;;;;;;3.85;1.42;;;;;;;15.40;62.02;99962.34;1763114;81;21529;-42
2022/07/19 00:34:39;;;;;;;2.58;1.10;;;;;;;15.44;62.22;99961.83;1763173;81;21882;-42
2022/07/19 00:37:07;;;;;;;1.85;1.20;;;;;;;15.52;62.33;99966.21;1763041;81;21018;-42
2022/07/19 00:39:36;;;;;;;3.05;1.60;;;;;;;15.57;62.04;99962.55;1758621;81;21457;-42
2022/07/19 00:42:03;;;;;;;2.10;1.30;;;;;;;15.60;62.19;99963.73;1762986;81;21204;-42
2022/07/19 00:44:31;;;;;;;2.52;1.40;;;;;;;15.63;61.65;99960.27;1763026;81;21049;-42
2022/07/19 00:46:58;;;;;;;2.83;1.50;;;;;;;15.61;61.44;99954.38;1763014;81;20978;-42
2022/07/19 00:49:27;;;;;;;2.52;1.40;;;;;;;15.59;61.29;99951.22;1763064;81;21508;-42
2022/07/19 00:51:54;;;;;;;3.12;1.40;;;;;;;15.59;61.40;99953.95;1762984;81;21042;-42
2022/07/19 00:54:21;;;;;;;3.72;1.37;;;;;;;15.59;61.47;99952.59;1763122;81;21212;-42
2022/07/19 00:56:50;;;;;;;1.77;1.30;;;;;;;15.59;61.54;99949.28;1762864;81;21476;-42
2022/07/19 00:59:17;;;;;;;2.08;1.47;;;;;;;15.61;61.61;99946.97;1756385;81;21013;-42
2022/07/19 01:01:45;;;;;;;2.45;1.22;;;;;;;15.60;61.18;99944.02;1750358;82;21029;-42
2022/07/19 01:04:12;;;;;;;5.40;1.70;;;;;;;15.56;61.20;99943.80;1750460;82;21054;-42
2022/07/19 01:06:40;;;;;;;1.90;1.35;;;;;;;15.53;61.46;99941.83;1750507;82;21112;-42
2022/07/19 01:09:08;;;;;;;2.08;1.40;;;;;;;15.53;61.72;99939.09;1697640;82;21621;-42
2022/07/19 01:11:36;;;;;;;1.95;1.40;;;;;;;15.52;61.83;99934.78;1749776;82;20934;-42
2022/07/19 01:14:03;;;;;;;2.50;1.30;;;;;;;15.51;61.91;99938.67;1749691;82;21404;-42
2022/07/19 01:16:31;;;;;;;2.27;1.32;;;;;;;15.52;62.19;99941.61;1749773;82;21386;-42
2022/07/19 01:18:58;;;;;;;2.12;1.20;;;;;;;15.54;62.10;99940.67;1749914;82;21243;-42
2022/07/19 01:21:26;;;;;;;3.22;1.52;;;;;;;15.54;61.95;99938.69;1749921;82;21075;-42
2022/07/19 01:23:53;;;;;;;7.03;1.67;;;;;;;15.54;62.07;99935.96;1749750;82;21003;-42
2022/07/19 01:26:20;;;;;;;2.62;1.50;;;;;;;15.54;62.07;99940.67;1750030;82;21496;-42
2022/07/19 01:28:48;;;;;;;1.40;1.30;;;;;;;15.52;62.23;99934.20;1749989;82;21047;-42
2022/07/19 01:31:15;;;;;;;2.95;1.55;;;;;;;15.50;62.28;99936.48;1750017;82;21140;-42
2022/07/19 01:33:45;;;;;;;2.40;1.45;;;;;;;15.49;62.29;99938.25;1749911;82;21011;-42
2022/07/19 01:36:12;;;;;;;1.67;1.30;;;;;;;15.49;62.34;99936.89;1750237;82;21030;-42
2022/07/19 01:38:40;;;;;;;2.87;1.32;;;;;;;15.48;62.43;99940.78;1749828;82;20947;-42
2022/07/19 01:41:08;;;;;;;4.60;1.35;;;;;;;15.44;62.48;99933.89;1749912;82;21043;-42
2022/07/19 01:43:35;;;;;;;2.25;1.37;;;;;;;15.39;62.68;99934.84;1749868;82;23112;-42
2022/07/19 01:46:02;;;;;;;2.83;1.50;;;;;;;15.36;62.83;99939.68;1749786;82;21021;-42
2022/07/19 01:48:30;;;;;;;3.98;1.70;;;;;;;15.34;63.11;99936.56;1749974;82;21520;-42
2022/07/19 01:50:58;;;;;;;2.98;1.40;;;;;;;15.32;63.21;99938.87;1749813;82;21019;-42
2022/07/19 01:53:26;;;;;;;4.33;1.55;;;;;;;15.29;63.39;99932.80;1749954;82;21023;-42
2022/07/19 01:55:53;;;;;;;3.77;1.45;;;;;;;15.31;63.50;99930.46;1749790;82;23174;-42
2022/07/19 01:58:21;;;;;;;2.83;1.45;;;;;;;15.29;63.48;99928.12;1750054;82;21608;-42
2022/07/19 02:00:48;;;;;;;3.05;1.40;;;;;;;15.29;63.55;99931.44;1750109;82;20951;-42
2022/07/19 02:03:16;;;;;;;3.08;1.50;;;;;;;15.32;63.67;99937.50;1749946;82;21074;-42
2022/07/19 02:05:44;;;;;;;2.67;1.50;;;;;;;15.32;63.67;99930.67;1749898;82;21062;-42
2022/07/19 02:08:11;;;;;;;3.55;1.47;;;;;;;15.32;63.70;99934.77;1749884;82;21344;-42
2022/07/19 02:10:38;;;;;;;2.77;1.50;;;;;;;15.34;63.81;99935.19;1749880;82;21101;-42
2022/07/19 02:13:06;;;;;;;3.15;1.40;;;;;;;15.36;63.67;99936.95;1749835;82;21029;-42
2022/07/19 02:15:33;;;;;;;3.60;1.60;;;;;;;15.34;63.66;99933.83;1749969;82;21098;-42
2022/07/19 02:18:01;;;;;;;2.75;1.75;;;;;;;15.31;63.76;99935.34;1749780;82;21557;-42
2022/07/19 02:20:28;;;;;;;2.52;1.60;;;;;;;15.28;63.88;99933.38;1749978;82;21152;-42
2022/07/19 02:22:56;;;;;;;4.62;1.60;;;;;;;15.27;64.04;99926.34;1749787;82;20967;-42
2022/07/19 02:25:24;;;;;;;2.35;1.57;;;;;;;15.31;64.06;99926.37;1749943;82;21078;-42
2022/07/19 02:27:53;;;;;;;3.62;1.40;;;;;;;15.31;64.08;99924.42;1749918;82;20948;-42
2022/07/19 02:30:21;;;;;;;2.50;1.40;;;;;;;15.29;64.07;99925.39;1749931;82;21544;-42
2022/07/19 02:32:48;;;;;;;4.58;1.52;;;;;;;15.26;64.21;99928.86;1749780;82;23122;-42
2022/07/19 02:35:18;;;;;;;2.00;1.40;;;;;;;15.27;64.27;99928.28;1749930;82;21488;-42
2022/07/19 02:37:45;;;;;;;2.60;1.50;;;;;;;15.25;64.26;99931.38;1749859;82;21007;-42
2022/07/19 02:40:12;;;;;;;3.15;1.72;;;;;;;15.22;64.38;99926.11;1749939;82;21042;-42
2022/07/19 02:42:41;;;;;;;2.45;1.47;;;;;;;15.21;64.41;99923.16;1749893;82;21493;-42
2022/07/19 02:45:09;;;;;;;2.90;1.52;;;;;;;15.18;64.59;99918.47;1749802;82;21140;-42
2022/07/19 02:47:38;;;;;;;4.40;1.62;;;;;;;15.16;64.54;99919.41;1750169;82;21022;-42
2022/07/19 02:50:07;;;;;;;2.55;1.50;;;;;;;15.11;64.68;99924.42;1749889;82;20935;-42
2022/07/19 02:52:34;;;;;;;2.10;1.45;;;;;;;15.05;64.86;99924.59;1750032;82;20978;-42
2022/07/19 02:55:01;;;;;;;3.77;1.57;;;;;;;15.03;64.91;99920.86;1750015;82;21557;-42
2022/07/19 02:57:28;;;;;;;3.35;1.70;;;;;;;14.98;65.00;99919.04;1750079;82;21250;-42
2022/07/19 02:59:55;;;;;;;2.37;1.52;;;;;;;14.94;65.20;99923.69;1749677;82;20928;-42
2022/07/19 03:02:22;;;;;;;2.90;1.70;;;;;;;14.93;65.31;99924.27;1749823;82;21085;-42
2022/07/19 03:04:49;;;;;;;4.85;1.70;;;;;;;14.92;65.32;99924.63;1749990;82;21335;-42
2022/07/19 03:07:18;;;;;;;2.55;1.42;;;;;;;14.88;65.47;99920.50;1749754;82;21532;-42
2022/07/19 03:09:47;;;;;;;3.40;1.50;;;;;;;14.86;65.74;99928.30;1749870;82;21296;-42
2022/07/19 03:12:15;;;;;;;;;;;;;;;14.89;66.00;99929.48;1752410;82;21536;-42
2022/07/19 03:14:42;;;;;;;3.95;1.32;;;;;;;14.92;66.11;99924.05;1749852;82;20130;-42
2022/07/19 03:17:09;;;;;;;3.20;1.60;;;;;;;14.84;66.41;99919.69;1749841;82;20948;-42
2022/07/19 03:19:36;;;;;;;3.85;1.60;;;;;;;14.86;66.56;99928.30;1749979;82;21605;-42
2022/07/19 03:22:03;;;;;;;3.27;1.62;;;;;;;14.88;66.63;99927.33;1749795;82;21145;-42
2022/07/19 03:24:30;;;;;;;4.37;1.72;;;;;;;14.91;66.76;99929.91;1749971;82;21509;-42
2022/07/19 03:26:57;;;;;;;4.20;1.70;;;;;;;14.92;66.86;99923.27;1749727;82;21003;-42
2022/07/19 03:29:24;;;;;;;2.75;1.60;;;;;;;14.95;66.94;99925.27;1749889;82;21026;-42
2022/07/19 03:31:52;;;;;;;2.20;1.50;;;;;;;14.93;67.01;99920.17;1749730;82;21025;-42
2022/07/19 03:34:19;;;;;;;1.72;1.35;;;;;;;14.93;67.25;99924.27;1749781;82;21140;-42
2022/07/19 03:36:45;;;;;;;1.65;1.50;;;;;;;14.98;67.47;99927.23;1749772;82;21018;-42
2022/07/19 03:39:13;;;;;;;3.75;1.90;;;;;;;15.01;67.50;99931.36;1749764;82;21030;-42
2022/07/19 03:41:40;;;;;;;3.35;2.00;;;;;;;15.05;67.54;99925.37;1749773;82;21073;-42
2022/07/19 03:44:06;;;;;;;3.55;1.55;;;;;;;15.09;67.58;99928.92;1749820;82;21015;-42
2022/07/19 03:46:33;;;;;;;3.25;2.00;;;;;;;15.14;67.59;99929.16;1749789;82;21240;-42
2022/07/19 03:49:01;;;;;;;3.70;1.92;;;;;;;15.17;67.65;99921.56;1749744;82;21051;-42
2022/07/19 03:51:28;;;;;;;2.90;2.10;;;;;;;15.21;67.79;99927.27;1749706;82;21022;-42
2022/07/19 03:53:55;;;;;;;3.10;1.80;;;;;;;15.26;67.95;99929.44;1749717;82;21020;-42
2022/07/19 03:56:23;;;;;;;3.22;1.85;;;;;;;15.32;67.96;99926.58;1749952;82;21019;-42
2022/07/19 03:58:50;;;;;;;3.47;2.10;;;;;;;15.37;67.98;99923.50;1749714;82;23230;-42
2022/07/19 04:01:16;;;;;;;3.67;2.08;;;;;;;15.43;67.98;99928.25;1749695;81;21000;-42
2022/07/19 04:03:44;;;;;;;1.98;1.75;;;;;;;15.45;67.99;99928.64;1749808;82;21034;-42
2022/07/19 04:06:12;;;;;;;3.05;1.80;;;;;;;15.50;68.21;99931.02;1749702;82;21051;-42
2022/07/19 04:08:38;;;;;;;2.72;1.80;;;;;;;15.57;68.47;99931.70;1749703;82;21038;-42
2022/07/19 04:11:06;;;;;;;3.08;1.92;;;;;;;15.64;68.33;99934.47;1749654;82;21295;-42
2022/07/19 04:13:35;;;;;;;2.35;1.80;;;;;;;15.71;68.35;99939.22;1749683;82;21544;-42
2022/07/19 04:16:02;;;;;;;3.17;1.85;;;;;;;15.75;68.38;99942.18;1749722;82;21052;-42
2022/07/19 04:18:30;;;;;;;2.50;1.52;;;;;;;15.80;68.28;99941.04;1749821;82;21029;-42
2022/07/19 04:20:57;;;;;;;2.50;1.62;;;;;;;15.85;68.08;99935.22;1749824;82;20999;-42
2022/07/19 04:23:24;;;;;;;2.98;1.90;;;;;;;15.92;67.80;99940.75;1749498;82;23163;-42
2022/07/19 04:25:51;;;;;;;4.72;2.08;;;;;;;15.96;67.87;99936.08;1749723;82;20986;-42
2022/07/19 04:28:18;;;;;;;3.05;2.00;;;;;;;16.01;67.89;99939.24;1744808;82;21050;-42
2022/07/19 04:30:45;;;;;;;3.05;2.10;;;;;;;16.07;67.79;99934.95;1749915;82;20971;-42
2022/07/19 04:33:16;;;;;;;5.03;2.52;;;;;;;16.09;67.96;99942.21;1749638;82;21090;-42
2022/07/19 04:35:43;;;;;;;4.00;2.02;;;;;;;16.15;68.02;99941.85;1749762;82;21207;-42
2022/07/19 04:38:10;;;;;;;3.15;1.62;;;;;;;16.23;68.00;99942.08;1749627;82;21018;-42
2022/07/19 04:40:37;;;;;;;2.70;1.75;;;;;;;16.29;68.17;99940.56;1749754;82;20935;-42
2022/07/19 04:43:05;;;;;;;4.42;1.82;;;;;;;16.36;68.21;99938.63;1749602;82;20947;-42
2022/07/19 04:45:31;;;;;;;3.98;2.45;;;;;;;16.42;68.30;99937.68;1749695;81;21006;-42
2022/07/19 04:47:58;;;;;;;4.17;2.00;;;;;;;16.51;68.71;99944.37;1749911;82;22028;-42
2022/07/19 04:50:25;;;;;;;3.02;1.85;;;;;;;16.60;68.36;99941.33;1749907;82;21027;-42
2022/07/19 04:52:52;;;;;;;3.58;1.95;;;;;;;16.67;67.78;99942.70;1749870;82;21007;-42
2022/07/19 04:55:19;;;;;;;4.22;2.20;;;;;;;16.76;67.40;99947.23;1749770;82;21591;-42
2022/07/19 04:57:46;;;;;;;4.08;2.50;;;;;;;16.87;66.94;99946.69;1750087;82;21536;-42
2022/07/19 05:00:13;;;;;;;5.12;2.50;;;;;;;16.99;65.57;99950.25;1749572;82;22054;-42
2022/07/19 05:02:42;;;;;;;3.95;1.98;;;;;;;17.09;65.63;99948.12;1749141;82;21006;-42
2022/07/19 05:05:09;;;;;;;5.70;2.30;;;;;;;17.20;65.02;99946.16;1749040;82;20983;-42
2022/07/19 05:07:37;;;;;;;4.92;2.40;;;;;;;17.28;64.20;99947.14;1749017;82;21023;-42
2022/07/19 05:10:05;;;;;;;8.83;2.35;;;;;;;17.36;63.98;99943.25;1748968;82;20978;-42
2022/07/19 05:12:32;;;;;;;3.87;2.30;;;;;;;17.46;63.36;99943.06;1748981;82;21795;-42
2022/07/19 05:15:00;;;;;;;4.35;2.25;;;;;;;17.53;63.44;99947.16;1748990;82;20983;-42
2022/07/19 05:17:28;;;;;;;3.15;2.20;;;;;;;17.61;63.27;99950.14;1748982;82;21026;-42
2022/07/19 05:19:55;;;;;;;3.85;2.25;;;;;;;17.70;63.36;99947.78;1748975;82;21096;-42
2022/07/19 05:22:24;;;;;;;3.12;2.05;;;;;;;17.81;63.57;99955.40;1748852;82;21031;-42
2022/07/19 05:24:52;;;;;;;4.40;2.25;;;;;;;17.87;63.23;99957.16;1749339;82;21236;-42
2022/07/19 05:27:20;;;;;;;6.10;2.35;;;;;;;17.93;63.18;99956.96;1749380;82;20959;-42
2022/07/19 05:29:47;;;;;;;3.62;2.45;;;;;;;17.98;63.20;99957.16;1749008;82;21006;-42
2022/07/19 05:32:14;;;;;;;4.42;2.25;;;;;;;18.03;63.50;99951.27;1749046;82;21528;-42
2022/07/19 05:34:42;;;;;;;3.50;2.10;;;;;;;18.10;63.62;99951.27;1749164;82;21003;-42
2022/07/19 05:37:09;;;;;;;3.95;2.40;;;;;;;18.20;63.49;99958.08;1749058;82;21138;-42
2022/07/19 05:39:37;;;;;;;4.92;2.35;;;;;;;18.25;63.26;99955.52;1748976;82;20904;-42
2022/07/19 05:42:04;;;;;;;4.45;2.20;;;;;;;18.33;62.89;99955.70;1748841;82;21023;-42
2022/07/19 05:44:31;;;;;;;4.37;2.30;;;;;;;18.35;62.50;99949.21;1749111;82;20991;-42
2022/07/19 05:46:59;;;;;;;3.90;2.42;;;;;;;18.40;62.69;99946.06;1748993;82;21030;-43
2022/07/19 05:49:26;;;;;;;3.72;2.58;;;;;;;18.42;62.58;99945.67;1749162;82;21214;-42
2022/07/19 05:51:53;;;;;;;3.20;2.55;;;;;;;18.45;62.49;99936.62;1759162;80;21634;-42
2022/07/19 05:54:20;;;;;;;5.85;2.35;;;;;;;18.51;62.33;99950.93;1774163;80;20929;-42
2022/07/19 05:56:47;;;;;;;3.62;2.12;;;;;;;18.54;61.81;99940.55;1774113;80;21580;-43
2022/07/19 05:59:16;;;;;;;4.55;2.60;;;;;;;18.28;61.98;99891.61;1774198;80;21088;-42
2022/07/19 06:01:43;;;;;;;4.80;2.35;;;;;;;18.63;62.38;99935.42;1774171;80;21133;-42
2022/07/19 06:04:10;;;;;;;4.87;2.15;;;;;;;18.75;62.49;99933.39;1773922;80;21531;-42
2022/07/19 06:06:38;;;;;;;4.53;2.35;;;;;;;18.87;61.97;99941.19;1774017;80;21021;-43
2022/07/19 06:09:07;;;;;;;4.47;2.30;;;;;;;18.92;61.82;99939.40;1774105;80;21041;-43
2022/07/19 06:11:34;;;;;;;3.27;2.20;;;;;;;18.94;61.71;99938.39;1774292;80;21570;-42
2022/07/19 06:14:01;;;;;;;5.42;2.47;;;;;;;18.97;62.02;99933.48;1774018;80;21206;-42
2022/07/19 06:16:28;;;;;;;5.70;2.45;;;;;;;19.02;61.69;99939.34;1774007;80;20957;-42
2022/07/19 06:18:55;;;;;;;6.33;2.40;;;;;;;19.09;61.35;99940.66;1774096;80;20997;-42
2022/07/19 06:21:22;;;;;;;4.83;2.40;;;;;;;19.12;60.84;99938.30;1773973;80;21601;-42
2022/07/19 06:23:49;;;;;;;4.67;2.15;;;;;;;19.11;61.12;99940.26;1774202;80;21006;-42
2022/07/19 06:26:17;;;;;;;7.37;2.72;;;;;;;19.10;60.75;99942.22;1774194;80;21199;-42
2022/07/19 06:28:45;;;;;;;5.90;2.58;;;;;;;19.05;60.92;99949.52;1774272;80;21495;-42
2022/07/19 06:31:13;;;;;;;5.28;2.42;;;;;;;19.00;60.95;99948.56;1774031;80;20981;-42
2022/07/19 06:33:42;;;;;;;5.42;3.12;;;;;;;18.95;61.30;99952.32;1774139;80;21080;-43
2022/07/19 06:36:10;;;;;;;3.80;2.65;;;;;;;18.86;61.55;99949.23;1774047;80;21025;-43
2022/07/19 06:38:37;;;;;;;5.83;2.80;;;;;;;18.82;62.02;99951.23;1774076;80;21242;-42
2022/07/19 06:41:05;;;;;;;4.55;2.58;;;;;;;18.80;61.83;99952.20;1773827;80;20965;-43
2022/07/19 06:43:32;;;;;;;4.97;2.72;;;;;;;18.82;62.29;99955.34;1774142;80;21033;-43
2022/07/19 06:46:01;;;;;;;7.53;2.87;;;;;;;18.84;63.00;99951.00;1774112;80;21021;-42
2022/07/19 06:48:28;;;;;;;4.35;2.58;;;;;;;18.86;62.41;99955.52;1774143;80;21037;-42
2022/07/19 06:50:55;;;;;;;5.67;3.27;;;;;;;18.85;62.00;99953.16;1774154;80;21242;-43
2022/07/19 06:53:22;;;;;;;3.52;2.60;;;;;;;18.85;62.59;99947.66;1774022;80;20918;-42
2022/07/19 06:55:50;;;;;;;5.65;2.92;;;;;;;18.87;62.33;99949.43;1774007;80;20918;-43
2022/07/19 06:58:17;;;;;;;6.92;2.62;;;;;;;18.92;62.48;99944.89;1774081;80;21530;-42
2022/07/19 07:00:45;;;;;;;4.30;2.47;;;;;;;18.99;62.12;99947.59;1776320;80;21012;-43
2022/07/19 07:03:13;;;;;;;3.85;2.37;;;;;;;19.03;61.88;99951.09;1782406;80;20989;-42
2022/07/19 07:05:41;;;;;;;3.95;2.55;;;;;;;19.08;62.05;99948.70;1782232;80;20926;-43
2022/07/19 07:08:08;;;;;;;4.85;2.90;;;;;;;19.14;62.39;99946.31;1782234;80;20996;-43
2022/07/19 07:10:39;;;;;;;8.08;3.08;;;;;;;19.20;62.13;99952.95;1782257;80;20925;-43
2022/07/19 07:13:07;;;;;;;3.55;2.60;;;;;;;19.24;62.16;99955.09;1782460;80;20997;-42
2022/07/19 07:15:34;;;;;;;3.90;2.30;;;;;;;19.25;61.75;99954.50;1782362;80;21141;-42
2022/07/19 07:18:03;;;;;;;4.15;2.42;;;;;;;19.24;62.36;99952.34;1782334;80;20969;-43
2022/07/19 07:20:33;;;;;;;4.00;2.60;;;;;;;19.24;61.62;99956.46;1782403;80;20981;-43
2022/07/19 07:23:02;;;;;;;4.97;2.58;;;;;;;19.26;61.54;99967.84;1782138;80;21080;-43
2022/07/19 07:25:29;;;;;;;3.55;2.45;;;;;;;19.25;61.76;99967.66;1782391;80;21594;-43
2022/07/19 07:27:56;;;;;;;5.15;2.50;;;;;;;19.26;61.69;99960.98;1782270;80;21106;-43
2022/07/19 07:30:23;;;;;;;5.97;2.47;;;;;;;19.27;62.29;99971.35;1782337;80;20964;-43
2022/07/19 07:32:50;;;;;;;4.83;2.00;;;;;;;19.32;62.04;99971.72;1782244;80;21511;-42
2022/07/19 07:35:17;;;;;;;3.25;2.00;;;;;;;19.37;61.51;99963.04;1782188;80;21048;-43
2022/07/19 07:37:45;;;;;;;3.22;1.80;;;;;;;19.40;61.22;99965.59;1782386;80;21017;-42
2022/07/19 07:40:12;;;;;;;4.05;1.90;;;;;;;19.40;61.30;99969.72;1782220;80;21317;-43
2022/07/19 07:42:40;;;;;;;6.08;2.30;;;;;;;19.43;61.39;99965.55;1782271;80;20965;-43
2022/07/19 07:45:09;;;;;;;3.15;2.22;;;;;;;19.49;61.59;99961.22;1782257;80;20981;-43
2022/07/19 07:47:37;;;;;;;5.00;2.10;;;;;;;19.61;61.90;99960.53;1782390;80;21015;-42
2022/07/19 07:50:06;;;;;;;3.55;2.20;;;;;;;19.74;61.30;99968.49;1782159;80;21559;-43
2022/07/19 07:52:33;;;;;;;4.37;1.90;;;;;;;19.86;60.90;99966.01;1782309;80;21227;-43
2022/07/19 07:55:01;;;;;;;6.17;2.33;;;;;;;19.97;61.02;99961.79;1782228;80;21008;-43
2022/07/19 07:57:28;;;;;;;3.35;1.77;;;;;;;20.07;60.14;99963.66;1782501;80;21001;-42
2022/07/19 07:59:57;;;;;;;4.08;1.95;;;;;;;20.13;60.47;99965.38;1782216;80;20937;-43
2022/07/19 08:02:24;;;;;;;3.08;1.92;;;;;;;20.16;60.37;99969.46;1775501;80;21076;-43
2022/07/19 08:04:51;;;;;;;2.20;1.80;;;;;;;20.13;59.85;99968.91;1774082;80;21189;-43
2022/07/19 08:07:18;;;;;;;5.45;2.20;;;;;;;20.04;60.18;99969.20;1773817;80;21033;-43
2022/07/19 08:09:46;;;;;;;3.75;2.27;;;;;;;19.97;60.54;99974.17;1774070;80;21108;-43
2022/07/19 08:12:13;;;;;;;8.50;2.20;;;;;;;19.91;60.82;99974.42;1773981;80;20926;-42
2022/07/19 08:14:42;;;;;;;3.42;2.20;;;;;;;19.86;61.02;99976.23;1774354;80;21040;-42
2022/07/19 08:17:10;;;;;;;3.37;1.98;;;;;;;19.78;61.53;99964.52;1774048;80;22018;-43
2022/07/19 08:19:37;;;;;;;4.95;2.17;;;;;;;19.76;61.88;99971.02;1773810;80;21536;-42
2022/07/19 08:22:05;;;;;;;4.47;2.40;;;;;;;19.76;61.68;99971.02;1773935;80;21543;-42
2022/07/19 08:24:32;;;;;;;4.15;2.02;;;;;;;19.75;61.76;99967.31;1768920;80;21069;-43
2022/07/19 08:27:00;;;;;;;4.90;2.15;;;;;;;19.74;61.81;99969.87;1774213;80;21034;-42
2022/07/19 08:29:27;;;;;;;3.50;2.30;;;;;;;19.72;61.91;99970.27;1774300;80;21234;-43
2022/07/19 08:31:54;;;;;;;4.78;2.12;;;;;;;19.72;62.17;99970.27;1774156;80;20958;-43
2022/07/19 08:34:22;;;;;;;5.95;2.50;;;;;;;19.74;62.34;99965.74;1774145;80;21032;-43
2022/07/19 08:36:48;;;;;;;4.17;2.00;;;;;;;19.75;62.34;99970.81;1774170;80;21037;-42
2022/07/19 08:39:17;;;;;;;4.00;2.50;;;;;;;19.77;63.07;99971.20;1773953;80;20996;-42
2022/07/19 08:41:44;;;;;;;5.30;2.50;;;;;;;19.82;63.25;99971.36;1774122;80;23139;-43
2022/07/19 08:44:12;;;;;;;4.05;2.35;;;;;;;19.84;63.93;99975.28;1773949;80;21590;-43
2022/07/19 08:46:40;;;;;;;3.25;2.50;;;;;;;19.84;64.18;99973.13;1774114;80;21008;-43
2022/07/19 08:49:11;;;;;;;3.22;2.12;;;;;;;19.84;65.44;99972.53;1774028;80;21073;-43
2022/07/19 08:51:38;;;;;;;4.65;2.58;;;;;;;19.95;66.14;99967.69;1774398;80;21045;-43
2022/07/19 08:54:06;;;;;;;4.95;2.65;;;;;;;20.08;65.35;99971.33;1774198;80;21129;-43
2022/07/19 08:59:18;;;;;;;4.15;2.55;;;;;;;20.28;65.64;99966.17;1774128;80;21018;-42
2022/07/19 09:01:44;;;;;;;3.92;2.77;;;;;;;20.44;65.18;99956.59;1777646;80;21028;-43
2022/07/19 09:04:17;;;;;;;5.03;2.90;;;;;;;20.57;64.25;99947.40;1782570;80;20917;-43
2022/07/19 09:06:50;;;;;;;4.37;2.58;;;;;;;20.72;62.02;99954.27;1782769;80;21356;-43
2022/07/19 09:09:20;;;;;;;5.83;2.50;;;;;;;20.82;61.80;99947.05;1782466;80;20977;-43
2022/07/19 09:11:50;;;;;;;3.67;2.50;;;;;;;20.84;61.23;99950.19;1782727;80;20933;-43
2022/07/19 09:14:22;;;;;;;3.45;2.62;;;;;;;20.85;61.22;99950.38;1782658;80;21306;-43
2022/07/19 09:17:02;;;;;;;5.83;2.47;;;;;;;20.87;61.03;99952.11;1782232;80;21527;-43
2022/07/19 09:19:32;;;;;;;4.70;2.58;;;;;;;20.90;60.80;99946.38;1782889;80;21306;-43
2022/07/19 09:22:03;;;;;;;5.80;2.45;;;;;;;20.91;60.92;99940.45;1782614;80;21027;-43
2022/07/19 09:24:33;;;;;;;5.33;2.83;;;;;;;20.95;60.45;99935.67;1782871;80;20954;-43
2022/07/19 09:27:05;;;;;;;4.10;2.87;;;;;;;20.98;61.06;99937.59;1782603;80;21037;-42
2022/07/19 09:29:36;;;;;;;4.35;2.47;;;;;;;20.99;60.07;99928.12;1776480;80;21586;-42
2022/07/19 09:32:18;;;;;;;4.22;2.47;;;;;;;21.00;60.56;99933.83;1782412;80;21215;-43
2022/07/19 09:34:58;;;;;;;3.40;2.60;;;;;;;21.06;59.59;99926.63;1782939;80;20977;-43
2022/07/19 09:37:32;;;;;;;5.08;2.70;;;;;;;21.11;59.16;99920.64;1781946;80;20921;-43
2022/07/19 09:40:06;;;;;;;4.58;2.47;;;;;;;21.11;59.07;99922.02;1782696;80;21112;-43
2022/07/19 09:42:44;;;;;;;4.40;2.52;;;;;;;21.10;59.15;99917.73;1782841;80;21057;-43
2022/07/19 09:45:13;;;;;;;6.10;2.70;;;;;;;21.10;59.09;99919.11;1782624;80;21301;-43
2022/07/19 09:47:44;;;;;;;4.25;2.55;;;;;;;21.09;60.10;99917.55;1782607;80;21514;-43
2022/07/19 09:50:21;;;;;;;3.30;2.52;;;;;;;21.15;59.77;99918.67;1782608;80;20965;-43
2022/07/19 09:52:50;;;;;;;2.98;2.27;;;;;;;21.23;59.97;99908.30;1782748;80;20953;-43
2022/07/19 09:55:17;;;;;;;5.53;2.58;;;;;;;21.34;59.04;99904.00;1782631;80;21048;-43
2022/07/19 09:57:47;;;;;;;3.58;2.27;;;;;;;21.43;59.42;99904.24;1782559;80;21069;-43
2022/07/19 10:00:16;;;;;;;;;;;;;;;21.54;59.03;99905.61;1785341;80;20989;-43
2022/07/19 10:02:48;;;;;;;3.92;2.33;;;;;;;21.67;58.40;99907.17;1776801;80;20092;-43
2022/07/19 10:05:16;;;;;;;2.75;2.20;;;;;;;21.71;58.39;99905.73;1774104;80;20997;-43
2022/07/19 10:07:42;;;;;;;3.95;2.15;;;;;;;21.82;56.63;99900.20;1774312;80;21582;-43
2022/07/19 10:10:13;;;;;;;3.15;2.30;;;;;;;21.90;56.61;99900.24;1773851;80;21145;-43
2022/07/19 10:12:43;;;;;;;4.12;2.05;;;;;;;21.91;56.97;99904.56;1774469;80;21032;-43
2022/07/19 10:15:12;;;;;;;3.92;2.40;;;;;;;21.95;56.96;99899.00;1774190;80;21511;-43
2022/07/19 10:18:02;;;;;;;6.03;2.65;;;;;;;21.99;56.73;99896.95;1774638;80;21016;-43
2022/07/19 10:20:31;;;;;;;3.22;2.20;;;;;;;21.96;56.68;99893.07;1774097;80;21016;-43
2022/07/19 10:23:00;;;;;;;2.80;2.22;;;;;;;22.02;56.41;99898.28;1774038;80;21083;-43
2022/07/19 10:25:40;;;;;;;3.10;2.02;;;;;;;22.16;57.23;99896.44;1715292;82;21523;-43
2022/07/19 10:28:30;;;;;;;3.08;2.10;;;;;;;22.25;56.77;99891.12;1774378;80;20937;-43
2022/07/19 10:30:57;;;;;;;3.42;2.25;;;;;;;22.27;56.94;99895.64;1774107;80;21476;-43
2022/07/19 10:33:36;;;;;;;2.87;2.02;;;;;;;22.31;56.72;99887.45;1774308;80;21065;-43
2022/07/19 10:36:33;;;;;;;3.27;2.00;;;;;;;22.41;56.02;99885.67;1774231;80;21079;-43
2022/07/19 10:39:38;;;;;;;4.42;2.12;;;;;;;22.52;54.87;99887.59;1774128;80;21079;-43
2022/07/19 10:42:21;;;;;;;3.85;2.10;;;;;;;22.57;53.64;99880.78;1773846;80;21504;-43
2022/07/19 10:45:02;;;;;;;4.25;2.02;;;;;;;22.60;54.48;99880.73;1774221;80;21033;-43
2022/07/19 10:47:42;;;;;;;3.42;2.33;;;;;;;22.71;53.57;99872.20;1774169;80;21523;-43
2022/07/19 10:50:18;;;;;;;4.78;2.30;;;;;;;22.75;53.20;99870.91;1774293;80;21132;-43
2022/07/19 10:52:45;;;;;;;3.05;2.10;;;;;;;22.76;53.52;99867.55;1773953;80;21078;-43
2022/07/19 10:55:28;;;;;;;2.50;1.87;;;;;;;22.82;53.23;99865.84;1773917;80;21008;-43
2022/07/19 10:58:11;;;;;;;3.17;2.45;;;;;;;22.91;53.02;99866.02;1774151;80;21483;-43
2022/07/19 11:00:49;;;;;;;2.92;2.12;;;;;;;23.01;53.02;99863.61;1774297;80;21535;-43
2022/07/19 11:03:26;;;;;;;3.05;2.27;;;;;;;23.03;52.48;99861.80;1780599;80;21149;-45
2022/07/19 11:06:01;;;;;;;6.45;2.40;;;;;;;23.02;53.26;99860.25;1782563;80;20894;-45
2022/07/19 11:08:37;;;;;;;3.72;2.33;;;;;;;23.12;54.79;99867.52;1782781;80;21538;-45
2022/07/19 11:11:13;;;;;;;3.37;2.10;;;;;;;23.28;53.65;99863.37;1782648;80;21044;-40
2022/07/19 11:13:44;;;;;;;3.83;2.02;;;;;;;23.52;53.32;99858.44;1781751;80;20985;-40
2022/07/19 11:16:11;;;;;;;3.17;2.15;;;;;;;23.86;52.49;99851.02;1782504;80;21129;-40
2022/07/19 11:18:39;;;;;;;3.20;2.10;;;;;;;24.19;52.88;99859.40;1782576;80;21013;-40
2022/07/19 11:21:06;;;;;;;3.83;2.10;;;;;;;24.31;51.00;99854.48;1782454;80;21084;-40
2022/07/19 11:23:35;;;;;;;2.77;1.95;;;;;;;24.37;51.83;99856.10;1782609;80;20937;-40
2022/07/19 11:26:14;;;;;;;2.72;2.00;;;;;;;24.32;51.39;99855.26;1782836;80;21079;-40
2022/07/19 11:28:42;;;;;;;3.72;2.20;;;;;;;24.15;50.48;99853.16;1782778;80;21884;-40
2022/07/19 11:31:21;;;;;;;3.22;2.05;;;;;;;23.90;51.40;99851.08;1782601;80;21368;-40
2022/07/19 11:33:52;;;;;;;4.05;2.20;;;;;;;23.74;51.52;99849.13;1782986;80;20997;-40
2022/07/19 11:36:19;;;;;;;2.55;1.75;;;;;;;23.56;52.08;99861.29;1782383;80;20973;-40
2022/07/19 11:38:58;;;;;;;1.82;1.62;;;;;;;23.24;50.90;99868.19;1782689;80;21024;-40
2022/07/19 11:41:30;;;;;;;3.17;2.05;;;;;;;22.70;53.03;99885.27;1780193;80;21256;-40
2022/07/19 11:44:05;;;;;;;3.60;2.30;;;;;;;21.95;58.11;99890.12;1782589;80;20902;-40